< < Back
Terminal Aerodrome Forecast


Current Version              Previous Versions:   1  2  3  4  5  6  7  8  9  

Terminal Aerodrome Forecast

843
FTUS42 KFFC 280746 AAA
TAFMCN
TAF AMD
KMCN 280746Z 2808/2906 VRB04KT P6SM SCT070
     FM281000 VRB03KT P6SM FEW012 SCT070
     FM281400 31006KT P6SM SCT040
      TEMPO 2817/2821 5SM TSRA BKN035CB
     FM282200 35008KT P6SM VCSH SCT045 BKN090
     FM290100 02004KT P6SM SCT070=

Latest METAR

485
SAUS80 KWBC 281100 CCA
MTRMCN
METAR KMCN 281053Z AUTO 36005KT 8SM CLR 23/21 A2998 RMK AO2 SLP146
T02280211 TSNO


USA.gov is the U.S. government's official web portal to all federal, state and local government web resources and services.